Bermuda Spirit — C6XT2 — position and weather

sailwx.info

Track history (hours):
 
Tides and Currents Weather Stations Pressure Air Temp Water Temp Dewpoint Dewpoint Depression Visibility Wind Speed Wind Dir Waves Ship Positions

Bermuda Spirit

Last reported at 2014-Sep-17 16:33 UTC. Time now 2014-Sep-22 12:18 UTC.
Position N 35°58' E 024°57'.

Length 274 m; draft 16.1 m.

Type: Tanker. MMSI: 311020900.

Date/timePositionNaut miles runAvg speedWind from/ knotsBaromVisibWave heightAir tempDewpointWater temp
2014-Sep-17 16:33N 35°58' E 024°57'2412.0
2014-Sep-17 14:33N 36°04' E 025°26'1211.6
2014-Sep-17 13:33N 36°06' E 025°40'1211.6
2014-Sep-17 12:33N 36°08' E 025°54'1211.8
2014-Sep-17 11:33N 36°12' E 026°08'1211.7
2014-Sep-17 10:31N 36°16' E 026°22'1111.9
2014-Sep-17 09:33N 36°26' E 026°30'4012.9
2014-Sep-17 06:30N 37°05' E 026°32'2814.4
2014-Sep-17 04:34N 37°20' E 026°03'1211.6
2014-Sep-17 03:33N 37°28' E 025°51'1111.2
2014-Sep-17 02:33N 37°38' E 025°46'1211.5
2014-Sep-17 01:32N 37°49' E 025°41'1211.6
2014-Sep-17 00:33N 38°00' E 025°36'1311.3
2014-Sep-16 23:25N 38°12' E 025°30'215 6.7
2014-Sep-15 15:12N 40°53' E 028°36'711.1
2014-Sep-15 14:32N 40°54' E 028°46'9 9.1
2014-Sep-15 13:33N 40°57' E 028°57'12 8.6
2014-Sep-15 12:07N 41°08' E 029°04'7 8.1
2014-Sep-15 11:12N 41°15' E 029°08'11 0.4
2014-Sep-14 08:29N 41°24' E 029°16'1111.4
2014-Sep-14 07:33N 41°29' E 029°28'25912.3
2014-Sep-13 10:32N 43°26' E 034°42'14413.0
2014-Sep-12 23:30N 44°32' E 037°40'1111.9
2014-Sep-12 22:33N 44°40' E 037°50'2 2.4
2014-Sep-12 21:31N 44°42' E 037°50'0 0.0
2014-Sep-12 20:31N 44°42' E 037°50'0 0.0
2014-Sep-12 19:31N 44°42' E 037°50'0 0.0
2014-Sep-12 18:31N 44°42' E 037°50'0 0.0
2014-Sep-12 17:31N 44°42' E 037°50'0 0.0
2014-Sep-12 16:31N 44°42' E 037°50'0 0.0
2014-Sep-12 15:31N 44°42' E 037°50'0 0.0
2014-Sep-12 14:31N 44°42' E 037°50'0 0.0
2014-Sep-12 13:31N 44°42' E 037°50'0 0.0
2014-Sep-12 12:31N 44°42' E 037°50'0 0.0
2014-Sep-12 11:31N 44°42' E 037°50'0 0.0
2014-Sep-12 10:31N 44°42' E 037°50'0 0.0
2014-Sep-12 09:31N 44°42' E 037°50'0 0.0
2014-Sep-12 08:31N 44°42' E 037°50'0 0.0
2014-Sep-12 07:31N 44°42' E 037°50'0 0.0
2014-Sep-12 06:31N 44°42' E 037°50'0 0.0
2014-Sep-12 05:31N 44°42' E 037°50'0 0.0
2014-Sep-12 04:31N 44°42' E 037°50'0 0.0
2014-Sep-12 03:31N 44°42' E 037°50'0 0.0
2014-Sep-12 02:31N 44°42' E 037°50'0 0.0
2014-Sep-12 01:31N 44°42' E 037°50'0 0.0
2014-Sep-12 00:31N 44°42' E 037°50'0 0.0
2014-Sep-11 23:31N 44°42' E 037°50'0 0.0
2014-Sep-11 22:31N 44°42' E 037°50'0 0.0
2014-Sep-11 21:28N 44°42' E 037°50'0 0.0
2014-Sep-11 20:31N 44°42' E 037°50'0 0.4
2014-Sep-11 19:33N 44°42' E 037°50'5 4.7
2014-Sep-11 18:33N 44°37' E 037°52'3 2.3
2014-Sep-11 17:28N 44°35' E 037°53'0 0.0
2014-Sep-11 16:31N 44°35' E 037°53'0 0.0
2014-Sep-11 15:31N 44°35' E 037°53'0 0.0
2014-Sep-11 14:31N 44°35' E 037°53'0 0.0
2014-Sep-11 13:31N 44°35' E 037°53'0 0.1
2014-Sep-11 12:31N 44°35' E 037°53'0 0.1
2014-Sep-11 11:31N 44°35' E 037°53'0 0.0
2014-Sep-11 10:31N 44°35' E 037°53'0 0.1
2014-Sep-11 09:31N 44°35' E 037°53'0 0.0
2014-Sep-11 08:31N 44°35' E 037°53'0 0.0
2014-Sep-11 07:31N 44°35' E 037°53'0 0.0
2014-Sep-11 06:31N 44°35' E 037°53'0 0.1
2014-Sep-11 05:31N 44°35' E 037°53'0 0.0
2014-Sep-11 04:31N 44°35' E 037°53'0 0.0
2014-Sep-11 03:31N 44°35' E 037°53'0 0.0
2014-Sep-11 02:31N 44°35' E 037°53'0 0.0
2014-Sep-11 01:31N 44°35' E 037°53'0 0.0
2014-Sep-11 00:31N 44°35' E 037°53'0 0.0
2014-Sep-10 23:31N 44°35' E 037°53'0 0.0
2014-Sep-10 22:31N 44°35' E 037°53'0 0.0
2014-Sep-10 21:31N 44°35' E 037°53'0 0.0
2014-Sep-10 20:31N 44°35' E 037°53'0 0.0
2014-Sep-10 19:31N 44°35' E 037°53'0 0.0
2014-Sep-10 18:28N 44°35' E 037°53'0 0.0
2014-Sep-10 17:31N 44°35' E 037°53'0 0.1
2014-Sep-10 16:31N 44°35' E 037°53'0 0.0
2014-Sep-10 15:28N 44°35' E 037°53'0 0.0
2014-Sep-10 14:31N 44°35' E 037°53'0 0.0
2014-Sep-10 13:31N 44°35' E 037°53'0 0.0
2014-Sep-10 12:31N 44°35' E 037°53'0 0.0
2014-Sep-10 11:31N 44°35' E 037°53'0 0.0
2014-Sep-10 10:31N 44°35' E 037°53'0 0.0
2014-Sep-10 09:28N 44°35' E 037°53'0 0.0
2014-Sep-10 08:31N 44°35' E 037°53'0 0.0
2014-Sep-10 07:31N 44°35' E 037°53'0 0.0
2014-Sep-10 06:31N 44°35' E 037°53'0 0.0
2014-Sep-10 05:31N 44°35' E 037°53'0 0.0
2014-Sep-10 04:28N 44°35' E 037°53'0 0.1
2014-Sep-10 03:31N 44°35' E 037°53'0 0.0
2014-Sep-10 02:31N 44°35' E 037°53'0 0.0
2014-Sep-10 01:31N 44°35' E 037°53'0 0.0
2014-Sep-10 00:31N 44°35' E 037°53'1 0.8
2014-Sep-09 23:33N 44°35' E 037°52'4 4.2
2014-Sep-09 22:33N 44°32' E 037°48'9 8.9
2014-Sep-09 21:33N 44°27' E 037°37'1211.8
2014-Sep-09 20:33N 44°22' E 037°23'38012.2
2014-Sep-08 13:16N 41°29' E 029°40'912.5
2014-Sep-08 12:33N 41°25' E 029°29'1312.6
2014-Sep-08 11:33N 41°20' E 029°14'  
Track history (hours):
 
Tides and Currents Weather Stations Pressure Air Temp Water Temp Dewpoint Dewpoint Depression Visibility Wind Speed Wind Dir Waves Ship Positions

Bermuda Spirit

Last reported at 2014-Sep-17 16:33 UTC. Time now 2014-Sep-22 12:18 UTC.
Position N 35°58' E 024°57'.

Length 274 m; draft 16.1 m.

Type: Tanker. MMSI: 311020900.

Date/timePositionNaut miles runAvg speedWind from/ knotsBaromVisibWave heightAir tempDewpointWater temp
2014-Sep-17 16:33N 35°58' E 024°57'2412.0
2014-Sep-17 14:33N 36°04' E 025°26'1211.6
2014-Sep-17 13:33N 36°06' E 025°40'1211.6
2014-Sep-17 12:33N 36°08' E 025°54'1211.8
2014-Sep-17 11:33N 36°12' E 026°08'1211.7
2014-Sep-17 10:31N 36°16' E 026°22'1111.9
2014-Sep-17 09:33N 36°26' E 026°30'4012.9
2014-Sep-17 06:30N 37°05' E 026°32'2814.4
2014-Sep-17 04:34N 37°20' E 026°03'1211.6
2014-Sep-17 03:33N 37°28' E 025°51'1111.2
2014-Sep-17 02:33N 37°38' E 025°46'1211.5
2014-Sep-17 01:32N 37°49' E 025°41'1211.6
2014-Sep-17 00:33N 38°00' E 025°36'1311.3
2014-Sep-16 23:25N 38°12' E 025°30'215 6.7
2014-Sep-15 15:12N 40°53' E 028°36'711.1
2014-Sep-15 14:32N 40°54' E 028°46'9 9.1
2014-Sep-15 13:33N 40°57' E 028°57'12 8.6
2014-Sep-15 12:07N 41°08' E 029°04'7 8.1
2014-Sep-15 11:12N 41°15' E 029°08'11 0.4
2014-Sep-14 08:29N 41°24' E 029°16'1111.4
2014-Sep-14 07:33N 41°29' E 029°28'25912.3
2014-Sep-13 10:32N 43°26' E 034°42'14413.0
2014-Sep-12 23:30N 44°32' E 037°40'1111.9
2014-Sep-12 22:33N 44°40' E 037°50'2 2.4
2014-Sep-12 21:31N 44°42' E 037°50'0 0.0
2014-Sep-12 20:31N 44°42' E 037°50'0 0.0
2014-Sep-12 19:31N 44°42' E 037°50'0 0.0
2014-Sep-12 18:31N 44°42' E 037°50'0 0.0
2014-Sep-12 17:31N 44°42' E 037°50'0 0.0
2014-Sep-12 16:31N 44°42' E 037°50'0 0.0
2014-Sep-12 15:31N 44°42' E 037°50'0 0.0
2014-Sep-12 14:31N 44°42' E 037°50'0 0.0
2014-Sep-12 13:31N 44°42' E 037°50'0 0.0
2014-Sep-12 12:31N 44°42' E 037°50'0 0.0
2014-Sep-12 11:31N 44°42' E 037°50'0 0.0
2014-Sep-12 10:31N 44°42' E 037°50'0 0.0
2014-Sep-12 09:31N 44°42' E 037°50'0 0.0
2014-Sep-12 08:31N 44°42' E 037°50'0 0.0
2014-Sep-12 07:31N 44°42' E 037°50'0 0.0
2014-Sep-12 06:31N 44°42' E 037°50'0 0.0
2014-Sep-12 05:31N 44°42' E 037°50'0 0.0
2014-Sep-12 04:31N 44°42' E 037°50'0 0.0
2014-Sep-12 03:31N 44°42' E 037°50'0 0.0
2014-Sep-12 02:31N 44°42' E 037°50'0 0.0
2014-Sep-12 01:31N 44°42' E 037°50'0 0.0
2014-Sep-12 00:31N 44°42' E 037°50'0 0.0
2014-Sep-11 23:31N 44°42' E 037°50'0 0.0
2014-Sep-11 22:31N 44°42' E 037°50'0 0.0
2014-Sep-11 21:28N 44°42' E 037°50'0 0.0
2014-Sep-11 20:31N 44°42' E 037°50'0 0.4
2014-Sep-11 19:33N 44°42' E 037°50'5 4.7
2014-Sep-11 18:33N 44°37' E 037°52'3 2.3
2014-Sep-11 17:28N 44°35' E 037°53'0 0.0
2014-Sep-11 16:31N 44°35' E 037°53'0 0.0
2014-Sep-11 15:31N 44°35' E 037°53'0 0.0
2014-Sep-11 14:31N 44°35' E 037°53'0 0.0
2014-Sep-11 13:31N 44°35' E 037°53'0 0.1
2014-Sep-11 12:31N 44°35' E 037°53'0 0.1
2014-Sep-11 11:31N 44°35' E 037°53'0 0.0
2014-Sep-11 10:31N 44°35' E 037°53'0 0.1
2014-Sep-11 09:31N 44°35' E 037°53'0 0.0
2014-Sep-11 08:31N 44°35' E 037°53'0 0.0
2014-Sep-11 07:31N 44°35' E 037°53'0 0.0
2014-Sep-11 06:31N 44°35' E 037°53'0 0.1
2014-Sep-11 05:31N 44°35' E 037°53'0 0.0
2014-Sep-11 04:31N 44°35' E 037°53'0 0.0
2014-Sep-11 03:31N 44°35' E 037°53'0 0.0
2014-Sep-11 02:31N 44°35' E 037°53'0 0.0
2014-Sep-11 01:31N 44°35' E 037°53'0 0.0
2014-Sep-11 00:31N 44°35' E 037°53'0 0.0
2014-Sep-10 23:31N 44°35' E 037°53'0 0.0
2014-Sep-10 22:31N 44°35' E 037°53'0 0.0
2014-Sep-10 21:31N 44°35' E 037°53'0 0.0
2014-Sep-10 20:31N 44°35' E 037°53'0 0.0
2014-Sep-10 19:31N 44°35' E 037°53'0 0.0
2014-Sep-10 18:28N 44°35' E 037°53'0 0.0
2014-Sep-10 17:31N 44°35' E 037°53'0 0.1
2014-Sep-10 16:31N 44°35' E 037°53'0 0.0
2014-Sep-10 15:28N 44°35' E 037°53'0 0.0
2014-Sep-10 14:31N 44°35' E 037°53'0 0.0
2014-Sep-10 13:31N 44°35' E 037°53'0 0.0
2014-Sep-10 12:31N 44°35' E 037°53'0 0.0
2014-Sep-10 11:31N 44°35' E 037°53'0 0.0
2014-Sep-10 10:31N 44°35' E 037°53'0 0.0
2014-Sep-10 09:28N 44°35' E 037°53'0 0.0
2014-Sep-10 08:31N 44°35' E 037°53'0 0.0
2014-Sep-10 07:31N 44°35' E 037°53'0 0.0
2014-Sep-10 06:31N 44°35' E 037°53'0 0.0
2014-Sep-10 05:31N 44°35' E 037°53'0 0.0
2014-Sep-10 04:28N 44°35' E 037°53'0 0.1
2014-Sep-10 03:31N 44°35' E 037°53'0 0.0
2014-Sep-10 02:31N 44°35' E 037°53'0 0.0
2014-Sep-10 01:31N 44°35' E 037°53'0 0.0
2014-Sep-10 00:31N 44°35' E 037°53'1 0.8
2014-Sep-09 23:33N 44°35' E 037°52'4 4.2
2014-Sep-09 22:33N 44°32' E 037°48'9 8.9
2014-Sep-09 21:33N 44°27' E 037°37'1211.8
2014-Sep-09 20:33N 44°22' E 037°23'38012.2
2014-Sep-08 13:16N 41°29' E 029°40'912.5
2014-Sep-08 12:33N 41°25' E 029°29'1312.6
2014-Sep-08 11:33N 41°20' E 029°14'  

Dump ship's entire track history